Time;durP1;ratioP1;P1;durP2;ratioP2;P2;SDS_P1;SDS_P2;PMS_P1;PMS_P2;Temp;Humidity;BMP_temperature;BMP_pressure;BME280_temperature;BME280_humidity;BME280_pressure;Samples;Min_cycle;Max_cycle;Signal;HPM_P1;HPM_P2
2022/09/14 00:02:18;;;;;;;6.10;3.20;;;;;;;;;;6289289;22;20020;-84
2022/09/14 00:05:03;;;;;;;5.20;3.28;;;;;;;;;;6289314;22;20019;-84
2022/09/14 00:07:49;;;;;;;4.47;3.00;;;;;;;;;;6289359;22;20015;-83
2022/09/14 00:10:42;;;;;;;6.60;3.42;;;;;;;;;;6288863;22;20020;-84
2022/09/14 00:13:28;;;;;;;4.22;3.40;;;;;;;;;;6288845;22;20015;-83
2022/09/14 00:16:20;;;;;;;6.00;3.30;;;;;;;;;;6284366;22;20016;-83
2022/09/14 00:19:35;;;;;;;5.85;3.45;;;;;;;;;;6266177;22;20015;-83
2022/09/14 00:22:20;;;;;;;5.40;3.77;;;;;;;;;;6256208;22;20016;-84
2022/09/14 00:25:05;;;;;;;3.80;3.40;;;;;;;;;;6266700;22;20350;-84
2022/09/14 00:27:52;;;;;;;6.10;3.20;;;;;;;;;;6266017;22;20020;-84
2022/09/14 00:30:41;;;;;;;6.70;3.60;;;;;;;;;;6289033;22;20020;-84
2022/09/14 00:33:26;;;;;;;5.97;4.15;;;;;;;;;;6288819;22;20016;-84
2022/09/14 00:36:21;;;;;;;8.13;3.22;;;;;;;;;;6265887;22;20433;-84
2022/09/14 00:39:07;;;;;;;;;;;;;;;;;;6289442;22;20020;-84
2022/09/14 00:41:53;;;;;;;6.10;3.40;;;;;;;;;;6265846;22;19907;-84
2022/09/14 00:44:38;;;;;;;7.60;2.90;;;;;;;;;;6244704;22;20432;-84
2022/09/14 00:47:24;;;;;;;4.13;2.88;;;;;;;;;;6265728;22;20020;-84
2022/09/14 00:50:10;;;;;;;6.47;2.80;;;;;;;;;;6244590;22;20340;-83
2022/09/14 00:52:56;;;;;;;3.78;2.83;;;;;;;;;;6288915;22;20015;-83
2022/09/14 00:55:42;;;;;;;6.93;3.08;;;;;;;;;;6288574;22;20437;-85
2022/09/14 00:58:27;;;;;;;4.50;2.90;;;;;;;;;;6288560;22;20020;-83
2022/09/14 01:01:14;;;;;;;3.80;2.90;;;;;;;;;;6265589;22;20016;-83
2022/09/14 01:04:00;;;;;;;5.38;3.28;;;;;;;;;;6288464;22;20425;-83
2022/09/14 01:07:17;;;;;;;4.78;3.05;;;;;;;;;;6305980;22;20011;-84
2022/09/14 01:10:41;;;;;;;4.30;3.15;;;;;;;;;;6290521;22;20349;-84
2022/09/14 01:14:11;;;;;;;9.15;3.13;;;;;;;;;;6165037;23;20021;-84
2022/09/14 01:17:14;;;;;;;4.25;3.10;;;;;;;;;;6265384;22;20027;-84
2022/09/14 01:20:09;;;;;;;5.10;3.28;;;;;;;;;;6288473;22;20023;-84
2022/09/14 01:23:02;;;;;;;3.83;3.10;;;;;;;;;;6288012;22;20016;-84
2022/09/14 01:26:18;;;;;;;5.60;3.08;;;;;;;;;;6288436;22;20020;-84
2022/09/14 01:29:10;;;;;;;4.07;3.47;;;;;;;;;;6265306;22;20019;-85
2022/09/14 01:32:07;;;;;;;6.15;3.58;;;;;;;;;;6288409;22;20345;-84
2022/09/14 01:35:11;;;;;;;6.45;3.83;;;;;;;;;;6288593;22;20016;-84
2022/09/14 01:37:58;;;;;;;8.68;3.42;;;;;;;;;;6265818;22;20019;-85
2022/09/14 01:40:50;;;;;;;7.13;3.22;;;;;;;;;;6288474;22;20016;-85
2022/09/14 01:43:47;;;;;;;7.22;3.63;;;;;;;;;;6265100;22;20349;-86
2022/09/14 01:46:56;;;;;;;5.55;3.05;;;;;;;;;;6243754;22;20015;-85
2022/09/14 01:49:48;;;;;;;5.28;3.22;;;;;;;;;;6265259;22;20020;-86
2022/09/14 01:52:46;;;;;;;5.70;3.50;;;;;;;;;;6265203;22;20011;-86
2022/09/14 01:55:43;;;;;;;7.85;3.08;;;;;;;;;;6243825;22;20019;-86
2022/09/14 01:58:44;;;;;;;4.82;3.42;;;;;;;;;;6264895;22;20015;-86
2022/09/14 02:01:36;;;;;;;7.93;3.47;;;;;;;;;;6265556;22;20015;-85
2022/09/14 02:04:40;;;;;;;7.65;3.58;;;;;;;;;;6265174;22;20023;-85
2022/09/14 02:07:25;;;;;;;5.38;3.35;;;;;;;;;;6288344;22;20020;-88
2022/09/14 02:10:14;;;;;;;7.30;3.55;;;;;;;;;;6288171;22;20015;-87
2022/09/14 02:13:02;;;;;;;5.70;3.33;;;;;;;;;;6243989;22;20016;-83
2022/09/14 02:15:47;;;;;;;6.03;3.63;;;;;;;;;;6262598;22;20020;-85
2022/09/14 02:18:33;;;;;;;14.70;4.35;;;;;;;;;;6265586;22;20337;-86
2022/09/14 02:21:28;;;;;;;7.95;4.10;;;;;;;;;;6266262;22;20015;-86
2022/09/14 02:24:19;;;;;;;8.50;4.72;;;;;;;;;;6259665;22;20344;-85
2022/09/14 02:27:06;;;;;;;12.07;5.38;;;;;;;;;;6266012;22;20023;-85
2022/09/14 02:30:01;;;;;;;9.70;4.93;;;;;;;;;;6243998;22;20015;-85
2022/09/14 02:33:08;;;;;;;9.02;4.90;;;;;;;;;;6243806;22;20452;-85
2022/09/14 02:35:58;;;;;;;9.65;5.25;;;;;;;;;;6288919;22;20349;-84
2022/09/14 02:39:06;;;;;;;8.10;4.47;;;;;;;;;;6288001;22;20015;-84
2022/09/14 02:42:20;;;;;;;8.93;4.80;;;;;;;;;;6288207;22;20019;-84
2022/09/14 02:45:20;;;;;;;8.30;4.20;;;;;;;;;;6220409;22;20444;-85
2022/09/14 02:48:21;;;;;;;6.80;3.78;;;;;;;;;;6288615;22;20020;-84
2022/09/14 02:51:20;;;;;;;5.22;3.35;;;;;;;;;;6287785;22;20023;-85
2022/09/14 02:54:16;;;;;;;4.65;3.28;;;;;;;;;;6287658;22;20341;-85
2022/09/14 02:57:03;;;;;;;5.57;3.42;;;;;;;;;;6287862;22;20417;-84
2022/09/14 02:59:48;;;;;;;6.45;3.38;;;;;;;;;;6287252;22;20015;-85
2022/09/14 03:02:34;;;;;;;6.35;3.20;;;;;;;;;;6287853;22;20019;-85
2022/09/14 03:05:19;;;;;;;7.68;3.50;;;;;;;;;;6288290;22;20019;-84
2022/09/14 03:08:05;;;;;;;7.25;3.13;;;;;;;;;;6287440;22;20041;-85
2022/09/14 03:10:50;;;;;;;4.32;3.35;;;;;;;;;;6287332;22;20332;-85
2022/09/14 03:13:36;;;;;;;4.05;3.33;;;;;;;;;;6287507;22;20441;-85
2022/09/14 03:16:22;;;;;;;5.63;3.67;;;;;;;;;;6282531;22;20028;-85
2022/09/14 03:19:07;;;;;;;4.30;3.30;;;;;;;;;;6287144;22;20345;-85
2022/09/14 03:21:53;;;;;;;4.63;3.45;;;;;;;;;;6288722;22;20368;-84
2022/09/14 03:24:39;;;;;;;4.43;3.45;;;;;;;;;;6289513;22;20023;-85
2022/09/14 03:27:25;;;;;;;9.20;3.80;;;;;;;;;;6266453;22;20015;-85
2022/09/14 03:30:11;;;;;;;6.30;3.85;;;;;;;;;;6267137;22;20012;-85
2022/09/14 03:33:00;;;;;;;5.03;3.58;;;;;;;;;;6266804;22;20019;-85
2022/09/14 03:35:45;;;;;;;10.98;4.03;;;;;;;;;;6289253;22;20020;-85
2022/09/14 03:38:30;;;;;;;4.72;3.25;;;;;;;;;;6298880;22;20016;-85
2022/09/14 03:41:17;;;;;;;13.10;4.03;;;;;;;;;;6286909;22;20016;-86
2022/09/14 03:44:02;;;;;;;9.18;3.78;;;;;;;;;;6289414;22;20019;-82
2022/09/14 03:46:48;;;;;;;4.93;3.40;;;;;;;;;;6289261;22;20020;-83
2022/09/14 03:49:34;;;;;;;5.63;3.67;;;;;;;;;;6266370;22;20016;-83
2022/09/14 03:52:19;;;;;;;6.55;3.60;;;;;;;;;;6266630;22;20015;-83
2022/09/14 03:55:06;;;;;;;4.60;3.20;;;;;;;;;;6289054;22;20011;-84
2022/09/14 03:57:55;;;;;;;6.82;3.70;;;;;;;;;;6289181;22;20019;-84
2022/09/14 04:00:40;;;;;;;4.35;3.30;;;;;;;;;;6266132;22;20019;-84
2022/09/14 04:03:25;;;;;;;6.18;3.60;;;;;;;;;;6266748;22;20012;-84
2022/09/14 04:06:11;;;;;;;6.13;3.60;;;;;;;;;;6266231;22;20011;-85
2022/09/14 04:08:58;;;;;;;5.20;3.50;;;;;;;;;;6266580;22;20016;-86
2022/09/14 04:11:44;;;;;;;6.70;3.75;;;;;;;;;;6266838;22;20015;-85
2022/09/14 04:14:29;;;;;;;5.78;3.83;;;;;;;;;;6245131;22;20015;-85
2022/09/14 04:17:16;;;;;;;7.00;3.97;;;;;;;;;;6266133;22;20425;-84
2022/09/14 04:20:01;;;;;;;7.30;3.85;;;;;;;;;;6288304;22;20059;-84
2022/09/14 04:22:47;;;;;;;11.68;3.75;;;;;;;;;;6288803;22;20019;-84
2022/09/14 04:25:32;;;;;;;8.82;3.92;;;;;;;;;;6289473;22;20433;-84
2022/09/14 04:28:18;;;;;;;7.30;4.35;;;;;;;;;;6288986;22;20023;-83
2022/09/14 04:31:04;;;;;;;5.63;4.30;;;;;;;;;;6289427;22;20016;-84
2022/09/14 04:33:50;;;;;;;7.20;4.38;;;;;;;;;;6266321;22;20011;-84
2022/09/14 04:36:44;;;;;;;10.32;4.43;;;;;;;;;;6289224;22;20333;-84
2022/09/14 04:39:32;;;;;;;8.23;4.40;;;;;;;;;;6245088;22;20020;-83
2022/09/14 04:42:18;;;;;;;7.43;4.25;;;;;;;;;;6245233;22;20020;-85
2022/09/14 04:45:03;;;;;;;10.23;5.20;;;;;;;;;;6265985;22;20020;-84
2022/09/14 04:47:49;;;;;;;6.55;4.20;;;;;;;;;;6265905;22;20023;-85
2022/09/14 04:50:34;;;;;;;11.38;4.82;;;;;;;;;;6266018;22;20365;-85
2022/09/14 04:53:20;;;;;;;9.10;4.10;;;;;;;;;;6265822;22;20015;-86
2022/09/14 04:56:11;;;;;;;8.63;4.97;;;;;;;;;;6244215;22;20016;-85
2022/09/14 04:59:03;;;;;;;7.10;3.85;;;;;;;;;;6245402;22;20020;-85
2022/09/14 05:01:49;;;;;;;8.05;3.63;;;;;;;;;;6298130;22;20015;-83
2022/09/14 05:04:34;;;;;;;13.70;4.20;;;;;;;;;;6295783;22;20016;-85
2022/09/14 05:07:20;;;;;;;9.10;3.83;;;;;;;;;;6272729;22;20016;-85
2022/09/14 05:10:07;;;;;;;7.78;3.80;;;;;;;;;;6296371;22;20020;-86
2022/09/14 05:12:53;;;;;;;11.50;4.10;;;;;;;;;;6272748;22;20346;-86
2022/09/14 05:15:37;;;;;;;7.95;4.28;;;;;;;;;;6270081;22;20016;-86
2022/09/14 05:18:23;;;;;;;7.80;3.90;;;;;;;;;;6295929;22;20019;-85
2022/09/14 05:21:11;;;;;;;11.30;4.05;;;;;;;;;;6296164;22;20019;-85
2022/09/14 05:23:58;;;;;;;6.22;3.67;;;;;;;;;;6293743;22;20015;-86
2022/09/14 05:26:45;;;;;;;8.80;3.85;;;;;;;;;;6289330;22;20011;-86
2022/09/14 05:29:31;;;;;;;8.43;4.35;;;;;;;;;;6289499;22;20019;-85
2022/09/14 05:32:16;;;;;;;7.80;3.83;;;;;;;;;;6290100;22;20015;-86
2022/09/14 05:35:02;;;;;;;9.20;4.20;;;;;;;;;;6289170;22;20016;-85
2022/09/14 05:37:47;;;;;;;8.05;4.85;;;;;;;;;;6266591;22;20019;-85
2022/09/14 05:40:36;;;;;;;9.98;4.63;;;;;;;;;;6269851;22;20020;-86
2022/09/14 05:43:35;;;;;;;10.85;4.35;;;;;;;;;;6244990;22;20024;-85
2022/09/14 05:46:21;;;;;;;12.52;4.65;;;;;;;;;;6245625;22;20015;-85
2022/09/14 05:49:08;;;;;;;9.05;4.32;;;;;;;;;;6244878;22;20015;-85
2022/09/14 05:52:05;;;;;;;5.95;3.85;;;;;;;;;;6267943;22;20019;-84
2022/09/14 05:54:50;;;;;;;9.70;4.35;;;;;;;;;;6246036;22;20016;-86
2022/09/14 05:57:35;;;;;;;11.50;4.75;;;;;;;;;;6265699;22;20015;-85
2022/09/14 06:00:23;;;;;;;9.38;4.72;;;;;;;;;;6265946;22;20016;-84
2022/09/14 06:03:09;;;;;;;7.43;4.53;;;;;;;;;;6265541;22;20019;-84
2022/09/14 06:05:57;;;;;;;6.55;4.82;;;;;;;;;;6266617;22;20012;-83
2022/09/14 06:08:43;;;;;;;9.93;5.60;;;;;;;;;;6270780;22;20020;-86
2022/09/14 06:11:32;;;;;;;7.68;5.30;;;;;;;;;;6289315;22;20024;-85
2022/09/14 06:14:27;;;;;;;7.88;4.40;;;;;;;;;;6288266;22;20020;-86
2022/09/14 06:17:21;;;;;;;8.70;4.75;;;;;;;;;;6262945;22;20016;-86
2022/09/14 06:20:19;;;;;;;9.93;4.95;;;;;;;;;;6269888;22;20015;-85
2022/09/14 06:23:34;;;;;;;9.20;4.85;;;;;;;;;;6287789;22;20023;-85
2022/09/14 06:27:12;;;;;;;7.60;3.90;;;;;;;;;;6244546;22;20016;-85
2022/09/14 06:30:18;;;;;;;6.53;4.20;;;;;;;;;;6235577;22;20015;-84
2022/09/14 06:33:05;;;;;;;10.10;4.35;;;;;;;;;;6254516;22;20024;-85
2022/09/14 06:35:59;;;;;;;5.97;3.65;;;;;;;;;;6288216;22;20337;-83
2022/09/14 06:38:46;;;;;;;7.47;4.00;;;;;;;;;;6243109;22;20019;-83
2022/09/14 06:41:33;;;;;;;7.63;4.20;;;;;;;;;;6287465;22;20015;-83
2022/09/14 06:44:18;;;;;;;9.50;3.90;;;;;;;;;;6243546;22;20016;-83
2022/09/14 06:47:22;;;;;;;4.47;3.63;;;;;;;;;;6287700;22;20016;-85
2022/09/14 06:50:07;;;;;;;11.30;4.28;;;;;;;;;;6242935;22;20012;-82
2022/09/14 06:53:40;;;;;;;5.28;3.70;;;;;;;;;;6265000;22;20020;-84
2022/09/14 06:56:38;;;;;;;7.15;3.97;;;;;;;;;;6240158;22;20019;-84
2022/09/14 06:59:25;;;;;;;;;;;;;;;;;;6243905;22;20019;-85
2022/09/14 07:02:19;;;;;;;;;;;;;;;;;;6264505;22;20305;-85
2022/09/14 07:05:31;;;;;;;6.68;3.90;;;;;;;;;;6287024;22;20210;-84
2022/09/14 07:08:42;;;;;;;5.57;3.90;;;;;;;;;;6243643;22;20016;-84
2022/09/14 07:11:28;;;;;;;7.05;3.85;;;;;;;;;;6287447;22;20007;-79
2022/09/14 07:14:13;;;;;;;7.28;3.67;;;;;;;;;;6287493;22;20011;-81
2022/09/14 07:16:58;;;;;;;11.15;4.07;;;;;;;;;;6286152;22;20016;-81
2022/09/14 07:19:44;;;;;;;4.68;3.25;;;;;;;;;;6286830;22;20020;-78
2022/09/14 07:22:33;;;;;;;5.60;3.10;;;;;;;;;;6287051;22;20020;-80
2022/09/14 07:25:18;;;;;;;6.47;3.25;;;;;;;;;;6287064;22;20016;-80
2022/09/14 07:28:03;;;;;;;5.15;2.92;;;;;;;;;;6287678;22;20020;-79
2022/09/14 07:30:49;;;;;;;6.28;3.15;;;;;;;;;;6287608;22;20023;-78
2022/09/14 07:33:35;;;;;;;6.45;3.28;;;;;;;;;;6287666;22;20015;-78
2022/09/14 07:36:22;;;;;;;4.88;3.42;;;;;;;;;;6294394;22;20011;-79
2022/09/14 07:39:09;;;;;;;7.30;3.40;;;;;;;;;;6289324;22;20019;-78
2022/09/14 07:41:55;;;;;;;10.65;4.00;;;;;;;;;;6287155;22;20020;-77
2022/09/14 07:44:40;;;;;;;7.90;4.50;;;;;;;;;;6286972;22;20114;-77
2022/09/14 07:47:25;;;;;;;6.93;3.90;;;;;;;;;;6264466;22;20433;-77
2022/09/14 07:50:11;;;;;;;8.95;4.03;;;;;;;;;;6287680;22;20012;-77
2022/09/14 07:52:57;;;;;;;8.63;4.82;;;;;;;;;;6287224;22;20020;-77
2022/09/14 07:55:42;;;;;;;10.65;5.38;;;;;;;;;;6288135;22;20421;-77
2022/09/14 07:58:28;;;;;;;7.30;4.40;;;;;;;;;;6287605;22;20012;-83
2022/09/14 08:01:19;;;;;;;7.78;4.60;;;;;;;;;;6287594;22;20020;-82
2022/09/14 08:04:05;;;;;;;8.43;5.20;;;;;;;;;;6287666;22;20020;-81
2022/09/14 08:06:50;;;;;;;6.95;3.85;;;;;;;;;;6286872;22;20023;-83
2022/09/14 08:09:37;;;;;;;6.22;3.70;;;;;;;;;;6288410;22;20015;-82
2022/09/14 08:12:23;;;;;;;3.85;3.33;;;;;;;;;;6288317;22;20019;-82
2022/09/14 08:15:09;;;;;;;7.13;3.35;;;;;;;;;;6288343;22;20016;-82
2022/09/14 08:17:54;;;;;;;7.05;3.90;;;;;;;;;;6288954;22;20024;-82
2022/09/14 08:20:40;;;;;;;6.57;3.80;;;;;;;;;;6288766;22;20380;-82
2022/09/14 08:23:26;;;;;;;7.63;3.42;;;;;;;;;;6266194;22;20020;-82
2022/09/14 08:26:15;;;;;;;6.68;3.45;;;;;;;;;;6288705;22;20020;-82
2022/09/14 08:29:03;;;;;;;5.38;3.35;;;;;;;;;;6288116;22;20019;-82
2022/09/14 08:31:50;;;;;;;6.10;3.40;;;;;;;;;;6266337;22;20020;-78
2022/09/14 08:34:36;;;;;;;5.70;3.53;;;;;;;;;;6291534;22;20191;-77
2022/09/14 08:37:21;;;;;;;6.07;3.63;;;;;;;;;;6294525;22;20457;-79
2022/09/14 08:40:10;;;;;;;11.02;4.35;;;;;;;;;;6300525;22;20028;-79
2022/09/14 08:42:57;;;;;;;8.65;3.88;;;;;;;;;;6289838;22;20019;-79
2022/09/14 08:45:44;;;;;;;5.90;3.92;;;;;;;;;;6291907;22;20425;-79
2022/09/14 08:48:39;;;;;;;5.43;4.13;;;;;;;;;;6288416;22;20023;-80
2022/09/14 08:51:25;;;;;;;4.75;3.60;;;;;;;;;;6292273;22;20020;-79
2022/09/14 08:54:11;;;;;;;10.73;3.40;;;;;;;;;;6291600;22;20012;-78
2022/09/14 08:57:13;;;;;;;8.60;3.70;;;;;;;;;;6289875;22;20020;-78
2022/09/14 09:00:12;;;;;;;6.78;3.80;;;;;;;;;;6288344;22;20011;-79
2022/09/14 09:03:01;;;;;;;7.63;3.95;;;;;;;;;;6288648;22;20425;-77
2022/09/14 09:06:04;;;;;;;7.75;3.83;;;;;;;;;;6288863;22;20345;-78
2022/09/14 09:09:04;;;;;;;7.85;4.38;;;;;;;;;;6288855;22;20024;-81
2022/09/14 09:11:52;;;;;;;6.28;4.70;;;;;;;;;;6288690;22;20015;-80
2022/09/14 09:14:47;;;;;;;8.73;5.18;;;;;;;;;;6288746;22;20016;-80
2022/09/14 09:17:43;;;;;;;10.23;5.20;;;;;;;;;;6278417;22;20020;-82
2022/09/14 09:20:32;;;;;;;7.80;4.75;;;;;;;;;;6267064;22;20015;-80
2022/09/14 09:23:22;;;;;;;8.52;5.13;;;;;;;;;;6289862;22;20020;-78
2022/09/14 09:26:08;;;;;;;6.55;4.45;;;;;;;;;;6288515;22;20016;-82
2022/09/14 09:28:57;;;;;;;8.25;4.63;;;;;;;;;;6289951;22;20361;-82
2022/09/14 09:31:48;;;;;;;5.30;3.80;;;;;;;;;;6289030;22;20011;-81
2022/09/14 09:34:53;;;;;;;5.57;3.40;;;;;;;;;;6268015;22;20008;-82
2022/09/14 09:37:49;;;;;;;8.57;3.28;;;;;;;;;;6265707;22;20020;-84
2022/09/14 09:40:43;;;;;;;4.05;3.13;;;;;;;;;;6288720;22;20019;-83
2022/09/14 09:43:28;;;;;;;3.78;2.88;;;;;;;;;;6266110;22;20020;-81
2022/09/14 09:46:14;;;;;;;6.35;3.05;;;;;;;;;;6288130;22;20341;-82
2022/09/14 09:49:21;;;;;;;4.93;2.65;;;;;;;;;;6289336;22;20015;-82
2022/09/14 09:52:12;;;;;;;4.35;2.65;;;;;;;;;;6289260;22;20020;-83
2022/09/14 09:54:59;;;;;;;6.45;2.78;;;;;;;;;;6288548;22;20016;-80
2022/09/14 09:57:45;;;;;;;6.65;3.20;;;;;;;;;;6288411;22;20019;-83
2022/09/14 10:00:36;;;;;;;3.55;2.25;;;;;;;;;;6287825;22;20019;-85
2022/09/14 10:03:34;;;;;;;4.50;2.55;;;;;;;;;;6265936;22;20023;-84
2022/09/14 10:06:19;;;;;;;7.07;2.50;;;;;;;;;;6291551;22;20020;-82
2022/09/14 10:09:12;;;;;;;4.95;2.80;;;;;;;;;;6305543;22;20019;-89
2022/09/14 10:17:03;;;;;;;7.25;2.13;;;;;;;;;;6284936;22;20019;-86
2022/09/14 10:19:51;;;;;;;5.78;2.45;;;;;;;;;;6234364;23;20024;-81
2022/09/14 10:22:40;;;;;;;3.70;2.40;;;;;;;;;;6257310;23;20016;-86
2022/09/14 10:25:26;;;;;;;5.28;1.90;;;;;;;;;;6251380;23;20020;-84
2022/09/14 10:28:43;;;;;;;2.90;2.20;;;;;;;;;;6257236;23;20019;-86
2022/09/14 10:31:39;;;;;;;3.70;2.17;;;;;;;;;;6233665;23;20016;-86
2022/09/14 10:34:43;;;;;;;2.25;1.90;;;;;;;;;;6217234;23;20433;-85
2022/09/14 10:37:39;;;;;;;3.53;2.42;;;;;;;;;;6257432;23;20020;-81
2022/09/14 10:40:36;;;;;;;2.88;2.13;;;;;;;;;;6234927;23;20017;-82
2022/09/14 10:43:54;;;;;;;4.63;2.20;;;;;;;;;;6257156;23;20016;-83
2022/09/14 10:46:49;;;;;;;6.65;2.40;;;;;;;;;;6257801;23;20024;-82
2022/09/14 10:49:57;;;;;;;3.60;2.03;;;;;;;;;;6234482;23;20577;-87
2022/09/14 10:52:55;;;;;;;6.65;2.50;;;;;;;;;;6257073;23;20019;-83
2022/09/14 10:56:04;;;;;;;4.40;2.30;;;;;;;;;;6236179;23;20333;-86
2022/09/14 10:59:37;;;;;;;3.28;2.40;;;;;;;;;;6257377;23;20020;-84
2022/09/14 11:02:50;;;;;;;6.03;2.67;;;;;;;;;;6234015;23;20020;-86
2022/09/14 11:05:38;;;;;;;3.78;2.80;;;;;;;;;;6256496;23;20020;-83
2022/09/14 11:08:26;;;;;;;6.47;3.05;;;;;;;;;;6256810;23;20020;-85
2022/09/14 11:11:51;;;;;;;5.20;2.55;;;;;;;;;;6258009;23;20016;-85
2022/09/14 11:15:27;;;;;;;5.65;2.80;;;;;;;;;;6256732;23;20024;-86
2022/09/14 11:18:44;;;;;;;5.13;2.75;;;;;;;;;;6225897;23;20024;-85
2022/09/14 11:21:56;;;;;;;7.57;2.97;;;;;;;;;;6259334;23;20020;-86
2022/09/14 11:25:03;;;;;;;5.10;3.30;;;;;;;;;;6235891;23;20442;-85
2022/09/14 11:28:08;;;;;;;6.00;3.60;;;;;;;;;;6234225;23;20015;-87
2022/09/14 11:31:06;;;;;;;9.45;3.42;;;;;;;;;;6213912;23;20445;-85
2022/09/14 11:34:05;;;;;;;5.53;3.50;;;;;;;;;;6214296;23;20453;-83
2022/09/14 11:37:02;;;;;;;5.65;3.72;;;;;;;;;;6234019;23;20537;-84
2022/09/14 11:40:23;;;;;;;6.75;2.83;;;;;;;;;;6256376;23;20016;-82
2022/09/14 11:43:17;;;;;;;5.32;3.20;;;;;;;;;;6235848;23;20016;-84
2022/09/14 11:46:18;;;;;;;3.65;2.55;;;;;;;;;;6258045;23;20020;-86
2022/09/14 11:49:47;;;;;;;8.38;3.08;;;;;;;;;;6258342;23;20020;-85
2022/09/14 11:52:33;;;;;;;6.65;2.80;;;;;;;;;;6245963;23;20016;-85
2022/09/14 11:55:22;;;;;;;8.65;2.80;;;;;;;;;;6235169;23;20008;-87
2022/09/14 11:58:19;;;;;;;6.63;3.50;;;;;;;;;;6258291;23;20457;-83
2022/09/14 12:01:28;;;;;;;10.05;3.28;;;;;;;;;;6258724;23;20020;-84
2022/09/14 12:04:16;;;;;;;8.30;3.70;;;;;;;;;;6258473;23;20020;-83
2022/09/14 12:07:05;;;;;;;10.35;3.13;;;;;;;;;;6258565;23;20057;-87
2022/09/14 12:10:16;;;;;;;3.65;2.67;;;;;;;;;;6257516;23;20024;-85
2022/09/14 12:13:19;;;;;;;11.02;7.05;;;;;;;;;;6256476;23;20453;-84
2022/09/14 12:16:07;;;;;;;7.82;3.45;;;;;;;;;;6258147;23;20016;-84
2022/09/14 12:18:55;;;;;;;5.45;3.28;;;;;;;;;;6252444;22;20016;-86
2022/09/14 12:21:41;;;;;;;6.00;3.05;;;;;;;;;;6289791;22;20024;-85
2022/09/14 12:24:39;;;;;;;12.57;4.47;;;;;;;;;;6244677;22;20027;-87
2022/09/14 12:27:24;;;;;;;4.63;2.20;;;;;;;;;;6289575;22;20019;-85
2022/09/14 12:30:38;;;;;;;11.30;4.22;;;;;;;;;;6268831;22;20016;-86
2022/09/14 12:33:42;;;;;;;3.30;2.30;;;;;;;;;;6254424;22;20015;-85
2022/09/14 12:36:36;;;;;;;7.90;3.55;;;;;;;;;;6269019;22;20011;-84
2022/09/14 12:39:26;;;;;;;3.50;2.30;;;;;;;;;;6290930;22;20015;-87
2022/09/14 12:42:37;;;;;;;4.82;2.40;;;;;;;;;;6291106;22;20015;-85
2022/09/14 12:45:48;;;;;;;3.42;2.45;;;;;;;;;;6290380;22;20015;-86
2022/09/14 12:49:02;;;;;;;3.42;1.90;;;;;;;;;;6266327;22;20020;-84
2022/09/14 12:51:49;;;;;;;3.65;2.10;;;;;;;;;;6244501;22;20433;-83
2022/09/14 12:55:03;;;;;;;4.13;2.58;;;;;;;;;;6288523;22;20020;-86
2022/09/14 12:58:28;;;;;;;3.78;2.00;;;;;;;;;;6289010;22;20016;-84
2022/09/14 13:01:17;;;;;;;4.22;2.20;;;;;;;;;;6245141;22;20019;-86
2022/09/14 13:04:04;;;;;;;5.72;2.30;;;;;;;;;;6288990;22;20015;-84
2022/09/14 13:06:51;;;;;;;6.10;2.85;;;;;;;;;;6291862;22;20019;-87
2022/09/14 13:09:37;;;;;;;6.35;2.38;;;;;;;;;;6266627;22;20020;-85
2022/09/14 13:12:52;;;;;;;6.15;3.08;;;;;;;;;;6268002;22;20019;-86
2022/09/14 13:15:50;;;;;;;9.10;3.65;;;;;;;;;;6288855;22;20012;-85
2022/09/14 13:18:38;;;;;;;7.05;2.17;;;;;;;;;;6281741;22;20015;-86
2022/09/14 13:21:26;;;;;;;6.82;3.55;;;;;;;;;;6266249;22;20019;-90
2022/09/14 13:24:26;;;;;;;2.83;1.90;;;;;;;;;;6289225;22;20020;-87
2022/09/14 13:27:30;;;;;;;5.15;3.03;;;;;;;;;;6266028;22;20349;-88
2022/09/14 13:30:18;;;;;;;;;;;;;;;;;;6290536;22;20016;-88
2022/09/14 13:33:04;;;;;;;9.75;5.45;;;;;;;;;;6289358;22;19907;-87
2022/09/14 13:35:55;;;;;;;14.48;7.53;;;;;;;;;;6289088;22;20016;-87
2022/09/14 13:38:42;;;;;;;4.55;2.72;;;;;;;;;;6266355;22;20027;-87
2022/09/14 13:41:41;;;;;;;10.73;5.05;;;;;;;;;;6289721;22;20015;-88
2022/09/14 13:44:49;;;;;;;10.82;7.25;;;;;;;;;;6293369;22;20020;-86
2022/09/14 13:47:34;;;;;;;17.65;9.70;;;;;;;;;;6293201;22;20024;-85
2022/09/14 13:50:24;;;;;;;42.72;26.52;;;;;;;;;;6267205;22;20361;-85
2022/09/14 13:53:35;;;;;;;13.63;8.75;;;;;;;;;;6266103;22;20012;-86
2022/09/14 13:56:31;;;;;;;12.48;5.85;;;;;;;;;;6265567;22;20011;-84
2022/09/14 13:59:26;;;;;;;14.98;7.97;;;;;;;;;;6288892;22;20338;-88
2022/09/14 14:02:31;;;;;;;12.20;6.57;;;;;;;;;;6246807;22;20020;-87
2022/09/14 14:05:40;;;;;;;10.80;4.18;;;;;;;;;;6265660;22;20306;-86
2022/09/14 14:08:37;;;;;;;8.25;3.55;;;;;;;;;;6288992;22;20019;-87
2022/09/14 14:11:47;;;;;;;7.97;4.50;;;;;;;;;;6288503;22;20020;-86
2022/09/14 14:14:32;;;;;;;15.52;9.50;;;;;;;;;;6264201;22;20023;-85
2022/09/14 14:17:29;;;;;;;15.35;7.55;;;;;;;;;;6243358;22;20023;-80
2022/09/14 14:20:23;;;;;;;7.47;5.45;;;;;;;;;;6288151;22;20429;-81
2022/09/14 14:23:18;;;;;;;;;;;;;;;;;;6288531;22;20147;-81
2022/09/14 14:26:27;;;;;;;5.88;2.90;;;;;;;;;;6288556;22;19911;-82
2022/09/14 14:29:16;;;;;;;4.60;2.70;;;;;;;;;;6288594;22;20429;-85
2022/09/14 14:32:01;;;;;;;6.18;2.40;;;;;;;;;;6288200;22;20015;-84
2022/09/14 14:34:47;;;;;;;3.10;2.20;;;;;;;;;;6287566;22;20012;-81
2022/09/14 14:37:32;;;;;;;4.03;2.20;;;;;;;;;;6287585;22;20023;-81
2022/09/14 14:40:18;;;;;;;5.68;2.50;;;;;;;;;;6288433;22;20016;-82
2022/09/14 14:43:09;;;;;;;11.85;3.03;;;;;;;;;;6288417;22;20019;-82
2022/09/14 14:45:58;;;;;;;9.40;3.35;;;;;;;;;;6287759;22;20024;-81
2022/09/14 14:49:14;;;;;;;6.82;2.95;;;;;;;;;;6288244;22;20020;-84
2022/09/14 14:51:59;;;;;;;5.05;3.17;;;;;;;;;;6289037;22;20015;-81
2022/09/14 14:54:44;;;;;;;5.47;2.55;;;;;;;;;;6287580;22;20019;-83
2022/09/14 14:57:34;;;;;;;6.00;2.75;;;;;;;;;;6287572;22;20019;-81
2022/09/14 15:00:23;;;;;;;5.30;2.55;;;;;;;;;;6287415;22;20020;-82
2022/09/14 15:03:09;;;;;;;7.72;2.70;;;;;;;;;;6286966;22;20448;-81
2022/09/14 15:05:54;;;;;;;4.13;2.47;;;;;;;;;;6287060;22;20341;-81
2022/09/14 15:08:39;;;;;;;8.60;2.72;;;;;;;;;;6287230;22;20441;-82
2022/09/14 15:11:25;;;;;;;4.50;2.70;;;;;;;;;;6286897;22;20012;-82
2022/09/14 15:14:16;;;;;;;6.28;2.88;;;;;;;;;;6287088;22;20015;-83
2022/09/14 15:17:02;;;;;;;7.75;3.30;;;;;;;;;;6288096;22;20015;-80
2022/09/14 15:19:48;;;;;;;6.97;2.88;;;;;;;;;;6288296;22;20020;-82
2022/09/14 15:22:35;;;;;;;9.85;3.45;;;;;;;;;;6287339;22;20024;-80
2022/09/14 15:25:20;;;;;;;12.82;3.67;;;;;;;;;;6289181;22;20337;-80
2022/09/14 15:28:05;;;;;;;7.88;3.65;;;;;;;;;;6290147;22;20019;-80
2022/09/14 15:30:56;;;;;;;9.07;4.10;;;;;;;;;;6289304;22;20433;-81
2022/09/14 15:33:41;;;;;;;10.70;4.07;;;;;;;;;;6289588;22;20016;-80
2022/09/14 15:36:50;;;;;;;10.48;5.15;;;;;;;;;;6289360;22;20333;-82
2022/09/14 15:40:02;;;;;;;11.30;5.97;;;;;;;;;;6272760;22;20020;-81
2022/09/14 15:42:49;;;;;;;9.88;4.85;;;;;;;;;;6289430;22;20682;-83
2022/09/14 15:45:34;;;;;;;14.57;5.75;;;;;;;;;;6266432;22;20019;-82
2022/09/14 15:48:18;;;;;;;11.68;5.40;;;;;;;;;;6289182;22;20019;-79
2022/09/14 15:51:09;;;;;;;11.27;5.45;;;;;;;;;;6288955;22;20429;-80
2022/09/14 15:53:56;;;;;;;12.98;5.50;;;;;;;;;;6289546;22;20019;-81
2022/09/14 15:56:46;;;;;;;9.40;5.65;;;;;;;;;;6289102;22;20016;-80
2022/09/14 15:59:32;;;;;;;18.48;6.55;;;;;;;;;;6289603;22;20035;-82
2022/09/14 16:02:18;;;;;;;15.13;6.30;;;;;;;;;;6289176;22;20020;-82
2022/09/14 16:05:05;;;;;;;12.73;5.45;;;;;;;;;;6289168;22;20341;-83
2022/09/14 16:07:54;;;;;;;12.52;7.00;;;;;;;;;;6289260;22;20019;-83
2022/09/14 16:10:39;;;;;;;21.23;9.98;;;;;;;;;;6292821;22;20341;-83
2022/09/14 16:13:25;;;;;;;17.55;10.05;;;;;;;;;;6289901;22;20441;-83
2022/09/14 16:16:19;;;;;;;15.50;9.00;;;;;;;;;;6290045;22;20422;-81
2022/09/14 16:19:11;;;;;;;26.50;9.57;;;;;;;;;;6288738;22;20020;-82
2022/09/14 16:21:57;;;;;;;32.13;15.23;;;;;;;;;;6289175;22;20020;-83
2022/09/14 16:24:43;;;;;;;22.95;10.23;;;;;;;;;;6289165;22;20023;-83
2022/09/14 16:27:28;;;;;;;20.70;7.93;;;;;;;;;;6289021;22;20016;-80
2022/09/14 16:30:13;;;;;;;19.92;7.63;;;;;;;;;;6289179;22;20024;-80
2022/09/14 16:32:59;;;;;;;14.65;7.25;;;;;;;;;;6288922;22;20015;-82
2022/09/14 16:35:45;;;;;;;13.60;7.60;;;;;;;;;;6288800;22;20008;-83
2022/09/14 16:38:30;;;;;;;19.80;9.30;;;;;;;;;;6288780;22;20015;-82
2022/09/14 16:41:16;;;;;;;16.75;9.57;;;;;;;;;;6289064;22;20019;-80
2022/09/14 16:44:03;;;;;;;18.02;8.40;;;;;;;;;;6288807;22;20020;-82
2022/09/14 16:46:50;;;;;;;15.68;8.55;;;;;;;;;;6289003;22;20020;-83
2022/09/14 16:49:38;;;;;;;17.80;8.02;;;;;;;;;;6287859;22;20341;-82
2022/09/14 16:52:23;;;;;;;16.95;8.55;;;;;;;;;;6288315;22;20024;-83
2022/09/14 16:55:08;;;;;;;14.25;7.90;;;;;;;;;;6288298;22;20020;-80
2022/09/14 16:57:54;;;;;;;19.58;10.88;;;;;;;;;;6288750;22;20019;-79
2022/09/14 17:00:39;;;;;;;23.70;13.98;;;;;;;;;;6288742;22;20020;-80
2022/09/14 17:03:27;;;;;;;23.40;12.88;;;;;;;;;;6288771;22;20016;-79
2022/09/14 17:06:18;;;;;;;22.30;13.70;;;;;;;;;;6288459;22;20019;-80
2022/09/14 17:09:44;;;;;;;;;;;;;;;;;;;;;
2022/09/14 17:13:23;;;;;;;15.73;7.57;;;;;;;;;;6289433;22;20020;-82
2022/09/14 17:16:41;;;;;;;14.65;7.00;;;;;;;;;;6278088;22;20019;-80
2022/09/14 17:19:32;;;;;;;13.57;6.88;;;;;;;;;;6255272;22;20020;-83
2022/09/14 17:22:17;;;;;;;14.82;6.55;;;;;;;;;;6264918;22;20019;-79